Time;durP1;ratioP1;P1;durP2;ratioP2;P2;SDS_P1;SDS_P2;PMS_P1;PMS_P2;Temp;Humidity;BMP_temperature;BMP_pressure;BME280_temperature;BME280_humidity;BME280_pressure;Samples;Min_cycle;Max_cycle;Signal;HPM_P1;HPM_P2
2022/11/06 00:01:09;;;;;;;;;;;;;;;7.18;81.44;98437.13;4916597;29;19942;-58
2022/11/06 00:03:37;;;;;;;;;;;;;;;7.14;81.27;98433.34;4916362;29;19985;-58
2022/11/06 00:08:54;;;;;;;;;;;;;;;6.94;82.11;98434.22;4914291;29;19927;-58
2022/11/06 00:11:22;;;;;;;;;;;;;;;7.06;81.74;98440.13;4913806;29;19951;-58
2022/11/06 00:13:52;;;;;;;;;;;;;;;7.00;81.86;98441.25;4927918;29;19931;-58
2022/11/06 00:16:44;;;;;;;;;;;;;;;6.96;82.07;98435.56;4910215;29;20384;-58
2022/11/06 00:22:06;;;;;;;;;;;;;;;6.98;81.80;98428.00;4916224;29;20329;-57
2022/11/06 00:24:34;;;;;;;;;;;;;;;6.97;81.87;98433.66;4908905;29;19939;-58
2022/11/06 00:27:03;;;;;;;;;;;;;;;6.86;82.24;98435.59;4913244;29;19928;-58
2022/11/06 00:29:33;;;;;;;;;;;;;;;6.86;82.18;98432.88;4922478;29;19928;-57
2022/11/06 00:32:01;;;;;;;;;;;;;;;6.78;82.60;98426.16;4915411;29;20266;-58
2022/11/06 00:34:29;;;;;;;;;;;;;;;6.70;82.75;98431.31;4912680;29;19927;-57
2022/11/06 00:36:59;;;;;;;;;;;;;;;6.40;84.01;98426.78;4915192;29;20213;-58
2022/11/06 00:39:27;;;;;;;;;;;;;;;6.51;83.53;98429.19;4928132;29;19950;-58
2022/11/06 00:42:20;;;;;;;;;;;;;;;6.51;83.04;98428.38;4913819;29;19927;-57
2022/11/06 00:44:50;;;;;;;;;;;;;;;6.55;83.13;98440.22;4930885;29;20386;-58
2022/11/06 00:47:18;;;;;;;;;;;;;;;6.46;83.32;98441.88;4915149;29;19956;-57
2022/11/06 00:49:46;;;;;;;;;;;;;;;6.39;83.53;98435.94;4928685;29;20026;-58
2022/11/06 00:52:14;;;;;;;;;;;;;;;6.47;83.25;98427.31;4920988;29;19927;-57
2022/11/06 00:54:43;;;;;;;;;;;;;;;6.43;82.70;98437.81;4912627;29;19954;-58
2022/11/06 01:00:04;;;;;;;;;;;;;;;6.12;84.24;98433.50;4904827;29;19931;-58
2022/11/06 01:02:33;;;;;;;;;;;;;;;5.92;85.01;98437.81;4914281;29;20347;-58
2022/11/06 01:07:57;;;;;;;;;;;;;;;5.68;85.37;98440.16;4928546;29;20286;-58
2022/11/06 01:10:25;;;;;;;;;;;;;;;5.56;85.99;98439.59;4914344;29;20303;-57
2022/11/06 01:12:53;;;;;;;;;;;;;;;5.35;86.54;98438.72;4914260;29;19934;-57
2022/11/06 01:15:22;;;;;;;;;;;;;;;5.39;86.24;98436.31;4915055;29;20347;-58
2022/11/06 01:17:51;;;;;;;;;;;;;;;5.42;86.17;98433.09;4915463;29;20044;-57
2022/11/06 01:20:19;;;;;;;;;;;;;;;5.49;86.08;98439.06;4902360;29;19939;-58
2022/11/06 01:22:47;;;;;;;;;;;;;;;5.56;85.67;98434.22;4909167;29;19933;-57
2022/11/06 01:25:16;;;;;;;;;;;;;;;5.70;85.25;98432.66;4915146;29;19927;-57
2022/11/06 01:27:46;;;;;;;;;;;;;;;5.84;84.80;98438.31;4928514;29;19927;-58
2022/11/06 01:30:16;;;;;;;;;;;;;;;5.77;84.62;98440.47;4914489;29;20334;-58
2022/11/06 01:32:45;;;;;;;;;;;;;;;5.74;84.46;98444.50;4915587;29;19931;-58
2022/11/06 01:35:14;;;;;;;;;;;;;;;5.76;83.65;98450.44;4914994;29;19934;-58
2022/11/06 01:37:42;;;;;;;;;;;;;;;5.74;83.93;98446.38;4910917;29;19931;-58
2022/11/06 01:40:10;;;;;;;;;;;;;;;5.68;83.94;98444.75;4911553;29;19935;-58
2022/11/06 01:42:39;;;;;;;;;;;;;;;5.82;83.58;98442.38;4914277;29;19945;-58
2022/11/06 01:45:30;;;;;;;;;;;;;;;5.64;83.20;98441.75;4914481;29;19935;-58
2022/11/06 01:48:00;;;;;;;;;;;;;;;5.46;84.63;98439.56;4903190;29;19995;-58
2022/11/06 01:50:28;;;;;;;;;;;;;;;5.33;84.35;98435.50;4914478;29;19934;-57
2022/11/06 01:52:59;;;;;;;;;;;;;;;5.25;84.74;98434.09;4903213;29;19931;-58
2022/11/06 01:55:29;;;;;;;;;;;;;;;5.38;84.44;98427.44;4912450;29;19927;-57
2022/11/06 01:57:57;;;;;;;;;;;;;;;5.52;84.32;98431.22;4905050;29;20432;-58
2022/11/06 02:00:26;;;;;;;;;;;;;;;5.49;83.96;98433.66;4913485;29;19928;-58
2022/11/06 02:02:55;;;;;;;;;;;;;;;5.58;83.44;98423.97;4907656;29;19934;-58
2022/11/06 02:05:25;;;;;;;;;;;;;;;5.63;83.33;98429.38;4914796;29;19963;-57
2022/11/06 02:07:53;;;;;;;;;;;;;;;5.68;82.27;98415.91;4911956;29;20386;-58
2022/11/06 02:10:21;;;;;;;;;;;;;;;5.57;82.69;98422.34;4908017;29;20316;-57
2022/11/06 02:12:52;;;;;;;;;;;;;;;5.61;82.58;98420.75;4908390;29;19927;-58
2022/11/06 02:15:22;;;;;;;;;;;;;;;5.46;82.88;98420.72;4912919;29;19927;-57
2022/11/06 02:17:55;;;;;;;;;;;;;;;5.10;84.19;98420.59;4915614;29;19975;-58
2022/11/06 02:20:25;;;;;;;;;;;;;;;5.23;84.16;98420.09;4915255;29;19939;-58
2022/11/06 02:23:06;;;;;;;;;;;;;;;5.21;84.18;98416.03;4917044;29;19956;-58
2022/11/06 02:25:38;;;;;;;;;;;;;;;5.24;84.07;98410.94;4913092;29;20014;-57
2022/11/06 02:28:09;;;;;;;;;;;;;;;5.19;83.96;98408.22;4914864;29;19982;-58
2022/11/06 02:30:40;;;;;;;;;;;;;;;5.39;83.28;98406.69;4914792;29;20377;-57
2022/11/06 02:33:08;;;;;;;;;;;;;;;5.48;82.65;98408.56;4915266;29;19934;-58
2022/11/06 02:35:39;;;;;;;;;;;;;;;5.49;82.00;98412.09;4907851;29;19935;-58
2022/11/06 02:38:07;;;;;;;;;;;;;;;5.23;82.46;98414.72;4914090;29;20019;-58
2022/11/06 02:40:36;;;;;;;;;;;;;;;5.30;82.19;98408.28;4909492;29;19934;-58
2022/11/06 02:43:05;;;;;;;;;;;;;;;5.38;82.25;98416.66;4911591;29;19928;-58
2022/11/06 02:45:35;;;;;;;;;;;;;;;5.37;81.75;98414.22;4914091;29;19995;-57
2022/11/06 02:48:05;;;;;;;;;;;;;;;5.43;81.29;98422.06;4913428;29;19935;-57
2022/11/06 02:50:35;;;;;;;;;;;;;;;5.40;81.57;98413.69;4905681;29;19927;-57
2022/11/06 02:53:04;;;;;;;;;;;;;;;5.30;81.65;98414.47;4916648;29;19927;-57
2022/11/06 02:55:33;;;;;;;;;;;;;;;5.32;81.51;98406.09;4917507;29;19927;-58
2022/11/06 02:58:04;;;;;;;;;;;;;;;5.27;81.38;98404.19;4917434;29;19959;-58
2022/11/06 03:00:32;;;;;;;;;;;;;;;5.24;81.35;98402.88;4940112;29;19942;-58
2022/11/06 03:03:02;;;;;;;;;;;;;;;5.26;81.25;98392.63;4917509;29;19927;-58
2022/11/06 03:05:31;;;;;;;;;;;;;;;5.30;81.05;98402.88;4911416;29;20377;-58
2022/11/06 03:08:01;;;;;;;;;;;;;;;5.25;80.65;98396.41;4915441;29;20250;-58
2022/11/06 03:10:31;;;;;;;;;;;;;;;5.07;81.09;98388.81;4915129;29;19934;-57
2022/11/06 03:12:59;;;;;;;;;;;;;;;5.03;81.47;98393.09;4917760;29;20014;-58
2022/11/06 03:15:31;;;;;;;;;;;;;;;5.10;81.00;98395.53;4917105;29;20452;-58
2022/11/06 03:17:59;;;;;;;;;;;;;;;4.93;81.45;98398.44;4912860;29;20026;-58
2022/11/06 03:20:30;;;;;;;;;;;;;;;4.90;81.49;98394.41;4917090;29;19950;-57
2022/11/06 03:23:00;;;;;;;;;;;;;;;4.99;80.93;98397.38;4915546;29;20491;-58
2022/11/06 03:25:29;;;;;;;;;;;;;;;4.81;81.03;98389.75;4928518;29;20338;-58
2022/11/06 03:28:01;;;;;;;;;;;;;;;4.82;81.15;98380.63;4911439;29;19927;-57
2022/11/06 03:30:29;;;;;;;;;;;;;;;4.76;81.27;98365.50;4917218;29;20266;-57
2022/11/06 03:32:59;;;;;;;;;;;;;;;4.76;81.16;98371.72;4917418;29;19931;-57
2022/11/06 03:35:28;;;;;;;;;;;;;;;4.80;80.92;98372.81;4916471;29;19927;-57
2022/11/06 03:37:58;;;;;;;;;;;;;;;4.66;81.28;98383.22;4917368;29;19982;-58
2022/11/06 03:40:26;;;;;;;;;;;;;;;4.65;81.77;98378.91;4915010;29;19927;-58
2022/11/06 03:42:55;;;;;;;;;;;;;;;4.58;81.46;98374.81;4916414;29;20034;-58
2022/11/06 03:45:22;;;;;;;;;;;;;;;4.60;81.43;98378.09;4912055;29;20527;-57
2022/11/06 03:47:52;;;;;;;;;;;;;;;4.66;81.38;98372.47;4916923;29;20292;-58
2022/11/06 03:50:20;;;;;;;;;;;;;;;4.67;81.07;98362.50;4916394;29;19935;-59
2022/11/06 03:52:49;;;;;;;;;;;;;;;4.63;81.48;98367.59;4914512;29;19958;-58
2022/11/06 03:55:19;;;;;;;;;;;;;;;4.65;81.44;98365.47;4914576;29;20005;-57
2022/11/06 03:57:48;;;;;;;;;;;;;;;4.58;81.71;98367.59;4917179;29;19963;-57
2022/11/06 04:00:19;;;;;;;;;;;;;;;4.61;81.15;98355.47;4913952;29;19931;-56
2022/11/06 04:02:48;;;;;;;;;;;;;;;4.64;80.87;98357.66;4917333;29;20436;-58
2022/11/06 04:05:17;;;;;;;;;;;;;;;4.57;81.52;98359.75;4915148;29;19927;-58
2022/11/06 04:13:56;;;;;;;;;;;;;;;4.51;81.13;98353.53;4909697;29;19938;-58
2022/11/06 04:16:10;;;;;;;;;;;;;;;4.59;81.20;98344.19;4915674;29;20373;-58
2022/11/06 04:18:38;;;;;;;;;;;;;;;4.58;81.18;98343.38;4916585;29;19931;-58
2022/11/06 04:21:21;;;;;;;;;;;;;;;4.56;80.79;98344.69;4915094;29;19991;-58
2022/11/06 04:26:34;;;;;;;;;;;;;;;4.40;81.12;98352.66;4906929;29;19941;-58
2022/11/06 04:26:44;;;;;;;;;;;;;;;4.49;81.24;98347.63;4915485;28;20009;-58
2022/11/06 04:29:41;;;;;;;;;;;;;;;4.54;80.58;98363.78;4915919;29;20270;-58
2022/11/06 04:32:11;;;;;;;;;;;;;;;4.48;80.35;98362.16;4913046;29;20289;-58
2022/11/06 04:34:42;;;;;;;;;;;;;;;4.13;81.13;98360.84;4916113;29;20018;-58
2022/11/06 04:37:11;;;;;;;;;;;;;;;3.87;82.78;98361.72;4914972;29;20030;-58
2022/11/06 04:39:41;;;;;;;;;;;;;;;4.02;82.11;98351.09;4914793;29;19927;-58
2022/11/06 04:42:11;;;;;;;;;;;;;;;4.05;82.03;98347.88;4912837;29;20192;-58
2022/11/06 04:44:41;;;;;;;;;;;;;;;4.02;81.82;98343.00;4928551;29;19931;-57
2022/11/06 04:47:09;;;;;;;;;;;;;;;4.07;81.91;98345.75;4927955;29;20017;-56
2022/11/06 04:49:37;;;;;;;;;;;;;;;4.05;81.84;98345.19;4913166;29;19931;-57
2022/11/06 04:52:06;;;;;;;;;;;;;;;4.14;81.44;98343.63;4914889;29;19982;-57
2022/11/06 04:54:37;;;;;;;;;;;;;;;4.10;81.12;98344.41;4912942;29;20292;-59
2022/11/06 04:57:06;;;;;;;;;;;;;;;4.04;81.51;98345.44;4913870;29;19927;-58
2022/11/06 05:00:00;;;;;;;;;;;;;;;3.92;81.95;98351.81;4910849;29;19987;-57
2022/11/06 05:02:28;;;;;;;;;;;;;;;3.94;81.49;98356.91;4912343;29;19982;-57
2022/11/06 05:04:59;;;;;;;;;;;;;;;3.82;82.08;98340.16;4914057;29;20383;-57
2022/11/06 05:07:52;;;;;;;;;;;;;;;3.96;81.96;98340.56;4911652;29;19934;-58
2022/11/06 05:10:20;;;;;;;;;;;;;;;3.90;82.34;98337.03;4911413;29;19930;-57
2022/11/06 05:12:48;;;;;;;;;;;;;;;3.83;81.75;98337.22;4912094;29;20557;-58
2022/11/06 05:15:19;;;;;;;;;;;;;;;3.82;81.37;98343.66;4911672;29;19931;-56
2022/11/06 05:17:47;;;;;;;;;;;;;;;3.73;81.94;98347.06;4906720;29;20281;-57
2022/11/06 05:20:17;;;;;;;;;;;;;;;3.63;82.71;98339.75;4915439;29;19931;-59
2022/11/06 05:22:56;;;;;;;;;;;;;;;3.82;82.07;98337.47;4933618;29;19975;-56
2022/11/06 05:25:24;;;;;;;;;;;;;;;3.83;82.26;98314.91;4914181;29;19978;-57
2022/11/06 05:27:52;;;;;;;;;;;;;;;3.84;82.10;98321.94;4912185;29;19927;-58
2022/11/06 05:30:22;;;;;;;;;;;;;;;3.78;82.03;98315.72;4913206;29;19955;-57
2022/11/06 05:32:50;;;;;;;;;;;;;;;3.56;83.59;98309.59;4914510;29;19931;-57
2022/11/06 05:35:18;;;;;;;;;;;;;;;3.50;83.69;98319.47;4907723;29;19928;-57
2022/11/06 05:37:47;;;;;;;;;;;;;;;3.41;84.07;98312.97;4909283;29;19931;-58
2022/11/06 05:40:15;;;;;;;;;;;;;;;3.48;83.47;98291.28;4914189;29;19970;-57
2022/11/06 05:42:43;;;;;;;;;;;;;;;3.55;83.17;98298.03;4914095;29;19950;-58
2022/11/06 05:45:12;;;;;;;;;;;;;;;3.64;83.01;98291.13;4906393;29;20050;-58
2022/11/06 05:47:41;;;;;;;;;;;;;;;3.81;82.55;98299.06;4907292;29;19934;-57
2022/11/06 05:50:09;;;;;;;;;;;;;;;3.80;82.60;98296.63;4909360;29;19934;-57
2022/11/06 05:52:40;;;;;;;;;;;;;;;3.75;82.06;98293.91;4914101;29;19937;-58
2022/11/06 05:55:33;;;;;;;;;;;;;;;3.65;82.62;98287.38;4912828;29;19954;-57
2022/11/06 05:58:09;;;;;;;;;;;;;;;3.65;82.91;98303.50;4911669;29;19927;-58
2022/11/06 06:00:37;;;;;;;;;;;;;;;3.64;82.18;98299.19;4914251;29;19931;-58
2022/11/06 06:03:08;;;;;;;;;;;;;;;3.59;81.92;98298.34;4911877;29;20274;-58
2022/11/06 06:05:35;;;;;;;;;;;;;;;3.62;82.25;98279.84;4914851;29;19990;-58
2022/11/06 06:08:05;;;;;;;;;;;;;;;3.59;81.95;98288.41;4929675;29;19927;-58
2022/11/06 06:10:34;;;;;;;;;;;;;;;3.49;82.39;98292.88;4913187;29;19958;-57
2022/11/06 06:13:02;;;;;;;;;;;;;;;3.24;83.32;98286.22;4914836;29;19927;-57
2022/11/06 06:15:30;;;;;;;;;;;;;;;3.51;83.17;98286.19;4914202;29;20435;-57
2022/11/06 06:17:59;;;;;;;;;;;;;;;3.60;82.17;98273.91;4910868;29;19928;-58
2022/11/06 06:20:28;;;;;;;;;;;;;;;3.61;82.25;98278.19;4913510;29;19927;-57
2022/11/06 06:22:57;;;;;;;;;;;;;;;3.53;82.03;98289.44;4914483;29;19927;-58
2022/11/06 06:25:25;;;;;;;;;;;;;;;3.51;82.20;98296.91;4917594;29;19938;-57
2022/11/06 06:27:53;;;;;;;;;;;;;;;3.48;82.11;98307.38;4917922;29;19927;-58
2022/11/06 06:30:22;;;;;;;;;;;;;;;3.22;82.76;98296.41;4917355;29;19982;-57
2022/11/06 06:35:44;;;;;;;;;;;;;;;3.42;82.72;98293.91;4914771;29;19998;-58
2022/11/06 06:38:12;;;;;;;;;;;;;;;3.53;82.44;98296.69;4911882;29;19938;-57
2022/11/06 06:40:40;;;;;;;;;;;;;;;3.60;81.77;98308.03;4918137;29;20570;-57
2022/11/06 06:43:11;;;;;;;;;;;;;;;3.61;81.87;98318.50;4918148;29;19928;-58
2022/11/06 06:45:38;;;;;;;;;;;;;;;3.63;82.04;98324.44;4921091;29;19949;-58
2022/11/06 06:48:08;;;;;;;;;;;;;;;3.76;81.94;98325.88;4917814;29;20337;-58
2022/11/06 06:50:36;;;;;;;;;;;;;;;3.62;81.30;98336.25;4915792;29;19927;-58
2022/11/06 06:55:59;;;;;;;;;;;;;;;3.73;81.62;98337.16;4920026;29;19927;-57
2022/11/06 06:58:27;;;;;;;;;;;;;;;3.87;81.06;98353.66;4921559;29;20017;-57
2022/11/06 07:00:55;;;;;;;;;;;;;;;3.73;80.83;98364.03;4917648;29;19927;-57
2022/11/06 07:03:24;;;;;;;;;;;;;;;3.86;80.71;98378.91;4909642;29;19931;-56
2022/11/06 07:05:52;;;;;;;;;;;;;;;3.96;80.70;98388.94;4917920;29;19957;-58
2022/11/06 07:08:22;;;;;;;;;;;;;;;3.97;80.61;98388.69;4930229;29;20022;-58
2022/11/06 07:10:50;;;;;;;;;;;;;;;3.97;80.91;98383.31;4934735;29;19938;-57
2022/11/06 07:13:18;;;;;;;;;;;;;;;4.00;80.83;98374.75;4932208;29;20395;-57
2022/11/06 07:15:46;;;;;;;;;;;;;;;4.13;81.16;98357.34;4916721;29;19927;-58
2022/11/06 07:18:15;;;;;;;;;;;;;;;4.10;80.59;98357.84;4917511;29;19931;-58
2022/11/06 07:20:43;;;;;;;;;;;;;;;3.90;81.54;98358.53;4912266;29;19931;-57
2022/11/06 07:23:11;;;;;;;;;;;;;;;4.02;81.67;98340.31;4917198;29;19933;-57
2022/11/06 07:25:43;;;;;;;;;;;;;;;3.93;82.42;98334.59;4916175;29;19935;-57
2022/11/06 07:28:36;;;;;;;;;;;;;;;3.92;82.69;98330.31;4922223;29;19931;-56
2022/11/06 07:31:05;;;;;;;;;;;;;;;4.00;81.72;98329.03;4908515;29;20022;-58
2022/11/06 07:33:33;;;;;;;;;;;;;;;4.03;82.59;98331.19;4917636;29;19931;-57
2022/11/06 07:36:04;;;;;;;;;;;;;;;4.00;82.36;98334.41;4909247;29;19931;-58
2022/11/06 07:38:32;;;;;;;;;;;;;;;4.12;81.29;98336.91;4913672;29;20377;-58
2022/11/06 07:41:03;;;;;;;;;;;;;;;4.01;82.46;98327.97;4907518;29;20006;-56
2022/11/06 07:43:31;;;;;;;;;;;;;;;3.95;82.06;98323.63;4912192;29;20098;-57
2022/11/06 07:46:00;;;;;;;;;;;;;;;4.26;81.93;98321.09;4911704;29;19927;-58
2022/11/06 07:48:28;;;;;;;;;;;;;;;4.30;82.13;98332.97;4912184;29;19935;-58
2022/11/06 07:50:56;;;;;;;;;;;;;;;4.39;81.65;98329.53;4918022;29;19927;-59
2022/11/06 07:53:25;;;;;;;;;;;;;;;4.63;81.18;98329.09;4914897;29;19946;-58
2022/11/06 07:55:56;;;;;;;;;;;;;;;4.61;80.26;98324.00;4915079;29;20389;-58
2022/11/06 07:58:25;;;;;;;;;;;;;;;4.53;80.53;98329.06;4921083;29;19959;-58
2022/11/06 08:00:54;;;;;;;;;;;;;;;4.25;81.48;98319.50;4915635;29;20440;-58
2022/11/06 08:03:23;;;;;;;;;;;;;;;4.32;82.06;98315.53;4914581;29;19966;-58
2022/11/06 08:05:51;;;;;;;;;;;;;;;4.41;81.51;98313.94;4912940;29;19927;-58
2022/11/06 08:08:19;;;;;;;;;;;;;;;4.38;82.10;98313.66;4918487;29;19975;-57
2022/11/06 08:10:50;;;;;;;;;;;;;;;3.93;83.24;98307.72;4919025;29;19930;-57
2022/11/06 08:13:18;;;;;;;;;;;;;;;3.94;83.58;98319.28;4911300;29;19927;-57
2022/11/06 08:15:47;;;;;;;;;;;;;;;4.30;83.32;98303.38;4925370;29;20292;-58
2022/11/06 08:18:16;;;;;;;;;;;;;;;4.27;83.29;98306.63;4927621;29;19957;-58
2022/11/06 08:20:44;;;;;;;;;;;;;;;4.39;82.83;98312.59;4915291;29;20308;-57
2022/11/06 08:23:13;;;;;;;;;;;;;;;4.49;82.57;98306.47;4912004;29;20257;-58
2022/11/06 08:25:42;;;;;;;;;;;;;;;4.50;83.11;98303.50;4911991;29;19927;-58
2022/11/06 08:28:10;;;;;;;;;;;;;;;4.47;82.64;98294.09;4914480;29;20025;-58
2022/11/06 08:30:38;;;;;;;;;;;;;;;4.46;83.34;98270.91;4908293;29;20262;-58
2022/11/06 08:33:08;;;;;;;;;;;;;;;4.49;83.29;98269.59;4912324;29;20381;-57
2022/11/06 08:36:02;;;;;;;;;;;;;;;4.59;83.38;98268.84;4912878;29;20381;-57
2022/11/06 08:38:30;;;;;;;;;;;;;;;4.94;81.94;98268.13;4912341;29;19931;-58
2022/11/06 08:40:58;;;;;;;;;;;;;;;4.95;82.68;98264.34;4914544;29;19934;-57
2022/11/06 08:43:27;;;;;;;;;;;;;;;5.11;82.04;98266.00;4911058;29;19927;-58
2022/11/06 08:45:55;;;;;;;;;;;;;;;5.09;82.43;98261.97;4912479;29;19982;-57
2022/11/06 08:49:14;;;;;;;;;;;;;;;5.04;83.09;98254.69;4910438;29;20432;-58
2022/11/06 08:51:44;;;;;;;;;;;;;;;5.28;82.50;98254.19;4913784;29;19927;-58
2022/11/06 08:54:12;;;;;;;;;;;;;;;5.48;81.81;98254.97;4911979;29;19931;-58
2022/11/06 08:56:41;;;;;;;;;;;;;;;5.40;81.82;98254.72;4912449;29;19928;-58
2022/11/06 08:59:09;;;;;;;;;;;;;;;5.50;82.08;98252.84;4913884;29;19927;-58
2022/11/06 09:01:37;;;;;;;;;;;;;;;5.37;82.67;98257.94;4927954;29;20217;-58
2022/11/06 09:04:30;;;;;;;;;;;;;;;5.56;82.58;98250.13;4912748;29;19978;-57
2022/11/06 09:07:00;;;;;;;;;;;;;;;5.58;82.49;98238.00;4911550;29;20034;-57
2022/11/06 09:09:30;;;;;;;;;;;;;;;5.60;82.03;98241.25;4912244;29;20344;-58
2022/11/06 09:11:58;;;;;;;;;;;;;;;5.73;82.20;98234.47;4914830;29;20022;-58
2022/11/06 09:17:22;;;;;;;;;;;;;;;5.90;82.42;98220.69;4912348;29;19973;-57
2022/11/06 09:19:50;;;;;;;;;;;;;;;6.15;81.84;98217.97;4911607;29;20245;-58
2022/11/06 09:22:20;;;;;;;;;;;;;;;5.92;82.33;98213.19;4913196;29;20318;-58
2022/11/06 09:25:14;;;;;;;;;;;;;;;6.06;82.48;98210.72;4908898;29;20325;-57
2022/11/06 09:27:42;;;;;;;;;;;;;;;6.17;82.02;98199.63;4923046;29;20357;-58
2022/11/06 09:30:12;;;;;;;;;;;;;;;6.25;81.12;98199.06;4915653;29;19927;-58
2022/11/06 09:32:46;;;;;;;;;;;;;;;6.16;81.00;98203.41;4916006;29;19950;-58
2022/11/06 09:35:15;;;;;;;;;;;;;;;6.08;81.25;98201.28;4928925;29;19931;-58
2022/11/06 09:37:45;;;;;;;;;;;;;;;6.24;80.86;98200.16;4913626;29;19927;-58
2022/11/06 09:40:17;;;;;;;;;;;;;;;6.16;81.12;98181.00;4913433;29;20022;-59
2022/11/06 09:42:48;;;;;;;;;;;;;;;6.38;80.42;98176.06;4918033;29;19931;-58
2022/11/06 09:45:21;;;;;;;;;;;;;;;6.45;80.73;98175.78;4932670;29;19959;-58
2022/11/06 09:47:50;;;;;;;;;;;;;;;6.71;78.95;98179.94;4915458;29;19941;-58
2022/11/06 09:50:20;;;;;;;;;;;;;;;6.61;79.78;98173.81;4914267;29;19927;-57
2022/11/06 09:52:50;;;;;;;;;;;;;;;6.65;79.76;98162.13;4910535;29;19934;-59
2022/11/06 09:55:20;;;;;;;;;;;;;;;6.66;79.46;98161.06;4914635;29;19933;-58
2022/11/06 09:57:49;;;;;;;;;;;;;;;6.85;79.19;98171.22;4914782;29;19971;-58
2022/11/06 10:00:19;;;;;;;;;;;;;;;6.79;79.77;98165.84;4913726;29;19937;-57
2022/11/06 10:02:49;;;;;;;;;;;;;;;6.98;78.26;98157.88;4912562;29;20415;-58
2022/11/06 10:05:21;;;;;;;;;;;;;;;6.92;78.21;98155.47;4936338;29;20300;-57
2022/11/06 10:07:55;;;;;;;;;;;;;;;7.15;77.13;98156.69;4921040;29;19931;-59
2022/11/06 10:10:25;;;;;;;;;;;;;;;7.15;77.15;98149.38;4932004;29;20299;-58
2022/11/06 10:12:59;;;;;;;;;;;;;;;7.01;78.17;98157.31;4918966;29;19927;-58
2022/11/06 10:15:28;;;;;;;;;;;;;;;7.00;77.88;98149.50;4922392;29;19927;-59
2022/11/06 10:17:59;;;;;;;;;;;;;;;6.87;78.08;98150.13;4934367;29;19927;-58
2022/11/06 10:20:30;;;;;;;;;;;;;;;6.87;77.97;98160.91;4922682;29;19934;-59
2022/11/06 10:23:09;;;;;;;;;;;;;;;6.85;78.65;98152.31;4921631;29;19947;-58
2022/11/06 10:25:45;;;;;;;;;;;;;;;6.85;77.57;98152.31;4909628;29;20018;-58
2022/11/06 10:28:21;;;;;;;;;;;;;;;6.92;77.54;98158.19;4923858;29;20357;-58
2022/11/06 10:30:51;;;;;;;;;;;;;;;7.19;76.61;98144.19;4936264;29;19935;-58
2022/11/06 10:33:23;;;;;;;;;;;;;;;7.24;76.20;98144.94;4918635;29;20021;-58
2022/11/06 10:35:53;;;;;;;;;;;;;;;7.26;76.37;98134.69;4937668;29;19927;-58
2022/11/06 10:38:23;;;;;;;;;;;;;;;7.16;76.75;98121.25;4917662;29;19934;-58
2022/11/06 10:40:52;;;;;;;;;;;;;;;7.17;76.77;98117.47;4914037;29;20329;-58
2022/11/06 10:43:24;;;;;;;;;;;;;;;7.33;76.11;98118.94;4919964;29;19927;-58
2022/11/06 10:45:55;;;;;;;;;;;;;;;7.18;76.34;98116.38;4923886;29;19927;-58
2022/11/06 10:48:25;;;;;;;;;;;;;;;7.13;76.49;98121.00;4917795;29;19927;-58
2022/11/06 10:51:03;;;;;;;;;;;;;;;7.08;76.94;98114.59;4914915;29;19927;-58
2022/11/06 10:53:35;;;;;;;;;;;;;;;7.22;77.33;98108.50;4920356;29;19933;-58
2022/11/06 10:56:19;;;;;;;;;;;;;;;7.33;76.47;98110.81;4925648;29;19927;-58
2022/11/06 10:58:48;;;;;;;;;;;;;;;7.20;77.32;98106.09;4915308;29;20360;-59
2022/11/06 11:01:16;;;;;;;;;;;;;;;7.34;76.91;98093.50;4911500;29;20030;-58
2022/11/06 11:03:48;;;;;;;;;;;;;;;7.47;76.28;98100.16;4914966;29;19979;-58
2022/11/06 11:06:17;;;;;;;;;;;;;;;7.43;76.53;98098.31;4914250;29;19931;-57
2022/11/06 11:08:52;;;;;;;;;;;;;;;7.19;77.00;98099.09;4912815;29;20022;-57
2022/11/06 11:11:24;;;;;;;;;;;;;;;7.62;75.94;98085.69;4915227;29;19931;-58
2022/11/06 11:14:07;;;;;;;;;;;;;;;7.66;75.91;98089.41;4920710;29;20022;-58
2022/11/06 11:16:38;;;;;;;;;;;;;;;7.64;75.22;98091.59;4916533;29;20352;-58
2022/11/06 11:19:15;;;;;;;;;;;;;;;7.74;75.08;98096.88;4917624;29;19966;-57
2022/11/06 11:21:52;;;;;;;;;;;;;;;7.69;75.14;98086.13;4913937;29;19949;-58
2022/11/06 11:24:24;;;;;;;;;;;;;;;7.76;75.32;98080.38;4916029;29;19935;-58
2022/11/06 11:26:55;;;;;;;;;;;;;;;7.75;75.12;98079.56;4914232;29;19935;-58
2022/11/06 11:29:24;;;;;;;;;;;;;;;7.64;75.23;98080.78;4911107;29;19927;-59
2022/11/06 11:31:53;;;;;;;;;;;;;;;7.69;75.36;98075.31;4906707;29;19958;-58
2022/11/06 11:34:21;;;;;;;;;;;;;;;7.65;75.29;98068.06;4938548;29;19926;-58
2022/11/06 11:36:56;;;;;;;;;;;;;;;7.74;75.23;98072.56;4916601;29;20022;-58
2022/11/06 11:39:50;;;;;;;;;;;;;;;7.74;75.41;98064.44;4930412;29;19938;-58
2022/11/06 11:42:24;;;;;;;;;;;;;;;7.85;75.55;98073.22;4917592;29;20010;-58
2022/11/06 11:45:11;;;;;;;;;;;;;;;7.87;74.82;98062.91;4915397;29;20439;-58
2022/11/06 11:47:41;;;;;;;;;;;;;;;7.76;75.43;98061.44;4924988;29;19931;-57
2022/11/06 11:50:20;;;;;;;;;;;;;;;7.75;75.85;98057.13;4918455;29;20273;-58
2022/11/06 11:52:50;;;;;;;;;;;;;;;7.90;75.09;98054.22;4910370;29;19927;-58
2022/11/06 11:55:20;;;;;;;;;;;;;;;7.88;74.95;98046.41;4909081;29;19935;-58
2022/11/06 11:57:50;;;;;;;;;;;;;;;7.81;75.05;98045.94;4929279;29;19931;-58
2022/11/06 12:00:19;;;;;;;;;;;;;;;7.86;75.11;98047.78;4915210;29;20638;-58
2022/11/06 12:02:48;;;;;;;;;;;;;;;7.94;74.16;98039.03;4916224;29;19929;-58
2022/11/06 12:05:18;;;;;;;;;;;;;;;8.01;73.73;98034.06;4910111;29;20372;-56
2022/11/06 12:07:47;;;;;;;;;;;;;;;8.10;73.25;98035.03;4912093;29;19943;-58
2022/11/06 12:10:19;;;;;;;;;;;;;;;7.87;73.99;98023.16;4914552;29;20392;-58
2022/11/06 12:12:48;;;;;;;;;;;;;;;8.08;73.10;98025.56;4916524;29;19970;-58
2022/11/06 12:15:20;;;;;;;;;;;;;;;7.96;73.29;98009.78;4932034;29;19927;-57
2022/11/06 12:17:51;;;;;;;;;;;;;;;7.97;73.59;98010.59;4916309;29;20277;-59
2022/11/06 12:20:21;;;;;;;;;;;;;;;8.11;73.34;98000.66;4907088;29;19938;-57
2022/11/06 12:22:50;;;;;;;;;;;;;;;8.25;73.17;98001.50;4914487;29;19927;-58
2022/11/06 12:25:19;;;;;;;;;;;;;;;8.25;72.50;98000.69;4922388;29;19938;-58
2022/11/06 12:27:50;;;;;;;;;;;;;;;8.33;72.77;97981.91;4913021;29;19927;-58
2022/11/06 12:30:20;;;;;;;;;;;;;;;8.26;72.66;97986.91;4929198;29;20408;-58
2022/11/06 12:32:56;;;;;;;;;;;;;;;8.50;72.47;97986.00;4910997;29;20021;-58
2022/11/06 12:35:26;;;;;;;;;;;;;;;8.53;72.69;97990.84;4913557;29;19932;-58
2022/11/06 12:37:57;;;;;;;;;;;;;;;8.63;71.81;97979.84;4913832;29;19975;-58
2022/11/06 12:40:27;;;;;;;;;;;;;;;8.62;71.96;97979.03;4910201;29;19931;-58
2022/11/06 12:43:01;;;;;;;;;;;;;;;8.56;71.56;97974.00;4912971;29;20383;-59
2022/11/06 12:45:33;;;;;;;;;;;;;;;8.63;71.50;97966.31;4913205;29;19931;-58
2022/11/06 12:48:03;;;;;;;;;;;;;;;8.63;71.35;97958.97;4914453;29;19935;-58
2022/11/06 12:50:32;;;;;;;;;;;;;;;8.68;71.85;97959.97;4913297;29;20312;-59
2022/11/06 12:53:03;;;;;;;;;;;;;;;8.65;71.77;97948.66;4911319;29;19927;-59
2022/11/06 12:55:34;;;;;;;;;;;;;;;8.64;72.02;97949.75;4910246;29;20297;-58
2022/11/06 12:58:06;;;;;;;;;;;;;;;8.34;73.17;97944.81;4908625;29;19934;-58
2022/11/06 13:00:37;;;;;;;;;;;;;;;8.46;72.79;97938.97;4931239;29;20433;-58
2022/11/06 13:03:19;;;;;;;;;;;;;;;8.45;73.41;97934.66;4915900;29;19927;-58
2022/11/06 13:05:51;;;;;;;;;;;;;;;8.38;73.68;97925.00;4912966;29;20030;-58
2022/11/06 13:08:23;;;;;;;;;;;;;;;8.21;73.53;97913.91;4913967;29;19931;-58
2022/11/06 13:10:57;;;;;;;;;;;;;;;8.32;73.81;97904.50;4914146;29;20440;-58
2022/11/06 13:13:31;;;;;;;;;;;;;;;8.50;73.23;97900.16;4915804;29;20020;-58
2022/11/06 13:16:04;;;;;;;;;;;;;;;8.24;74.86;97897.06;4915486;29;19931;-58
2022/11/06 13:18:34;;;;;;;;;;;;;;;8.52;74.36;97907.97;4915027;29;21741;-58
2022/11/06 13:21:04;;;;;;;;;;;;;;;8.55;73.60;97902.78;4913661;29;19987;-58
2022/11/06 13:23:37;;;;;;;;;;;;;;;8.61;72.27;97898.06;4930120;29;19931;-58
2022/11/06 13:26:12;;;;;;;;;;;;;;;8.71;72.22;97900.59;4914837;29;19930;-58
2022/11/06 13:28:43;;;;;;;;;;;;;;;8.50;70.38;97891.25;4913907;29;20381;-59
2022/11/06 13:31:13;;;;;;;;;;;;;;;8.63;70.94;97885.06;4930330;29;19995;-59
2022/11/06 13:33:42;;;;;;;;;;;;;;;8.62;70.31;97876.09;4912481;29;19927;-58
2022/11/06 13:39:06;;;;;;;;;;;;;;;8.53;70.58;97867.09;4912614;29;19928;-58
2022/11/06 13:41:35;;;;;;;;;;;;;;;8.59;71.40;97865.88;4912785;29;19933;-58
2022/11/06 13:44:03;;;;;;;;;;;;;;;8.56;72.01;97866.47;4913024;29;19931;-58
2022/11/06 13:46:35;;;;;;;;;;;;;;;8.33;72.02;97857.38;4927926;29;19934;-58